Time;durP1;ratioP1;P1;durP2;ratioP2;P2;SDS_P1;SDS_P2;PMS_P1;PMS_P2;Temp;Humidity;BMP_temperature;BMP_pressure;BME280_temperature;BME280_humidity;BME280_pressure;Samples;Min_cycle;Max_cycle;Signal;HPM_P1;HPM_P2
2023/04/20 00:01:09;;;;;;;5.68;2.25;;;;;;;7.11;40.78;102169.94;4951481;28;20027;-81
2023/04/20 00:03:36;;;;;;;3.75;2.03;;;;;;;7.08;39.15;102167.31;4950985;28;20467;-81
2023/04/20 00:06:02;;;;;;;5.85;2.40;;;;;;;7.05;39.99;102167.25;4948968;28;20115;-81
2023/04/20 00:08:27;;;;;;;4.22;2.28;;;;;;;7.02;40.34;102162.06;4947252;28;20156;-81
2023/04/20 00:10:52;;;;;;;3.90;2.25;;;;;;;7.00;39.80;102161.19;4952679;28;20475;-81
2023/04/20 00:13:18;;;;;;;4.70;2.35;;;;;;;6.94;40.54;102155.94;4949731;28;20612;-81
2023/04/20 00:15:43;;;;;;;3.78;2.20;;;;;;;6.89;39.90;102144.66;4952755;28;20039;-81
2023/04/20 00:18:08;;;;;;;4.13;2.13;;;;;;;6.88;40.01;102142.94;4948133;28;20043;-81
2023/04/20 00:20:34;;;;;;;4.90;2.17;;;;;;;6.86;40.57;102144.63;4951058;28;20475;-81
2023/04/20 00:23:00;;;;;;;3.70;2.03;;;;;;;6.83;39.87;102140.31;4952697;28;20027;-81
2023/04/20 00:25:25;;;;;;;2.55;1.80;;;;;;;6.83;40.34;102129.97;4950309;28;20039;-81
2023/04/20 00:27:50;;;;;;;5.53;1.90;;;;;;;6.81;40.08;102132.53;4949401;28;20031;-81
2023/04/20 00:30:16;;;;;;;3.33;2.08;;;;;;;6.78;40.36;102116.09;4950089;28;20144;-81
2023/04/20 00:32:41;;;;;;;5.05;2.03;;;;;;;6.79;40.24;102123.88;4950661;28;20106;-81
2023/04/20 00:35:07;;;;;;;2.97;1.83;;;;;;;6.78;40.11;102122.16;4955816;28;20452;-81
2023/04/20 00:37:32;;;;;;;3.15;1.90;;;;;;;6.73;39.75;102123.81;4950659;28;20027;-81
2023/04/20 00:39:57;;;;;;;5.40;2.03;;;;;;;6.72;40.23;102126.41;4945154;28;20031;-81
2023/04/20 00:42:22;;;;;;;4.07;2.30;;;;;;;6.69;40.67;102106.53;4952532;28;20126;-81
2023/04/20 00:44:49;;;;;;;4.10;1.77;;;;;;;6.65;41.04;102100.47;4950771;28;20492;-81
2023/04/20 00:47:15;;;;;;;4.95;2.22;;;;;;;6.59;41.30;102109.88;4968754;28;20032;-81
2023/04/20 00:49:40;;;;;;;5.05;2.15;;;;;;;6.52;41.63;102107.19;4953612;28;20086;-81
2023/04/20 00:52:05;;;;;;;5.18;2.13;;;;;;;6.50;41.67;102095.13;4954850;28;20222;-81
2023/04/20 00:54:31;;;;;;;5.65;1.90;;;;;;;6.47;41.58;102090.78;4953713;28;20041;-81
2023/04/20 00:56:58;;;;;;;3.08;1.63;;;;;;;6.46;41.48;102083.00;4953401;28;20070;-81
2023/04/20 00:59:24;;;;;;;3.28;1.90;;;;;;;6.38;42.08;102080.31;4954145;28;20019;-81
2023/04/20 01:01:49;;;;;;;2.95;1.77;;;;;;;6.35;42.57;102073.41;4955085;28;20027;-81
2023/04/20 01:04:15;;;;;;;4.03;2.03;;;;;;;6.33;42.32;102069.06;4953815;28;20049;-81
2023/04/20 01:06:41;;;;;;;4.20;2.30;;;;;;;6.27;42.88;102067.28;4953365;28;20031;-81
2023/04/20 01:09:07;;;;;;;3.90;2.03;;;;;;;6.25;43.47;102060.34;4950333;28;20035;-81
2023/04/20 01:11:32;;;;;;;3.38;2.08;;;;;;;6.20;43.58;102058.56;4952750;28;20038;-81
2023/04/20 01:13:57;;;;;;;4.65;1.90;;;;;;;6.13;44.20;102053.31;4947380;28;20455;-81
2023/04/20 01:16:23;;;;;;;3.72;1.90;;;;;;;6.09;44.10;102049.84;4948114;28;20483;-81
2023/04/20 01:18:49;;;;;;;3.38;2.00;;;;;;;6.03;44.10;102045.47;4948220;28;20034;-81
2023/04/20 01:21:16;;;;;;;3.90;2.15;;;;;;;6.01;44.10;102043.69;4950246;28;20031;-81
2023/04/20 01:23:42;;;;;;;2.92;2.00;;;;;;;5.98;44.50;102035.91;4946174;28;20137;-81
2023/04/20 01:26:09;;;;;;;4.32;2.10;;;;;;;5.97;44.36;102027.25;4949364;28;20479;-81
2023/04/20 01:28:34;;;;;;;5.15;2.00;;;;;;;5.93;44.67;102031.53;4949760;28;20454;-81
2023/04/20 01:31:01;;;;;;;3.00;1.80;;;;;;;5.93;44.90;102025.47;4948213;28;20043;-81
2023/04/20 01:33:27;;;;;;;4.45;2.05;;;;;;;5.90;45.05;102021.16;4950584;28;20031;-81
2023/04/20 01:35:52;;;;;;;4.20;2.10;;;;;;;5.89;45.19;102019.41;4951639;28;20042;-81
2023/04/20 01:38:19;;;;;;;4.75;2.05;;;;;;;5.82;45.85;102011.56;4950643;28;20030;-81
2023/04/20 01:40:44;;;;;;;4.18;2.00;;;;;;;5.81;45.62;102015.84;4944774;28;20106;-81
2023/04/20 01:43:10;;;;;;;4.82;2.50;;;;;;;5.79;45.23;102007.25;4949160;28;20166;-81
2023/04/20 01:45:35;;;;;;;5.60;2.30;;;;;;;5.78;45.10;102003.78;4949906;28;20495;-81
2023/04/20 01:48:00;;;;;;;3.78;2.10;;;;;;;5.78;45.58;101998.63;4948655;28;20023;-80
2023/04/20 01:50:26;;;;;;;3.55;1.90;;;;;;;5.75;45.56;101990.81;4949146;28;20057;-80
2023/04/20 01:52:51;;;;;;;3.30;1.90;;;;;;;5.74;45.49;101989.09;4949197;28;20067;-81
2023/04/20 01:55:16;;;;;;;4.60;1.85;;;;;;;5.73;45.35;101986.50;4951552;28;20038;-81
2023/04/20 01:57:43;;;;;;;5.05;2.00;;;;;;;5.71;45.44;101988.19;4947994;28;20386;-81
2023/04/20 02:00:09;;;;;;;3.70;1.77;;;;;;;5.70;44.94;101984.75;4945075;28;20035;-81
2023/04/20 02:02:35;;;;;;;4.35;1.88;;;;;;;5.72;44.65;101987.34;4940457;28;20098;-81
2023/04/20 02:05:00;;;;;;;3.83;1.80;;;;;;;5.74;44.77;101983.06;4944312;28;20027;-81
2023/04/20 02:07:25;;;;;;;5.18;1.70;;;;;;;5.75;44.80;101979.66;4945525;28;20035;-81
2023/04/20 02:09:51;;;;;;;4.00;1.80;;;;;;;5.72;45.04;101985.63;4948745;28;20031;-81
2023/04/20 02:12:16;;;;;;;3.67;1.90;;;;;;;5.72;45.94;101980.44;4942800;28;20082;-81
2023/04/20 02:14:41;;;;;;;3.22;1.88;;;;;;;5.70;45.17;101977.00;4945017;28;20035;-81
2023/04/20 02:17:07;;;;;;;4.55;1.80;;;;;;;5.72;45.51;101975.28;4942133;28;20035;-81
2023/04/20 02:19:32;;;;;;;6.97;1.77;;;;;;;5.72;45.38;101971.84;4945547;28;20071;-80
2023/04/20 02:21:57;;;;;;;3.53;1.90;;;;;;;5.72;46.40;101970.13;4942853;28;20023;-81
2023/04/20 02:24:23;;;;;;;3.67;1.80;;;;;;;5.71;46.26;101973.59;4947154;28;20035;-81
2023/04/20 02:26:48;;;;;;;5.80;2.08;;;;;;;5.69;46.71;101971.81;4947444;28;20475;-81
2023/04/20 02:29:13;;;;;;;4.10;1.95;;;;;;;5.61;46.94;101967.44;4941121;28;20039;-80
2023/04/20 02:31:38;;;;;;;3.85;2.17;;;;;;;5.56;47.07;101961.34;4948091;28;20062;-81
2023/04/20 02:34:05;;;;;;;4.57;2.00;;;;;;;5.50;47.91;101958.66;4940650;28;20027;-81
2023/04/20 02:36:30;;;;;;;4.78;2.30;;;;;;;5.47;47.78;101953.44;4942575;28;20039;-81
2023/04/20 02:38:55;;;;;;;3.60;2.20;;;;;;;5.42;49.22;101945.66;4946073;28;20026;-80
2023/04/20 02:41:20;;;;;;;2.85;1.95;;;;;;;5.37;48.93;101947.31;4946717;28;20066;-78
2023/04/20 02:43:46;;;;;;;3.70;2.25;;;;;;;5.34;49.23;101944.69;4946501;28;20027;-81
2023/04/20 02:46:11;;;;;;;4.15;2.50;;;;;;;5.34;49.28;101943.81;4944837;28;20024;-80
2023/04/20 02:48:36;;;;;;;3.83;2.22;;;;;;;5.29;49.69;101936.91;4949283;28;20031;-81
2023/04/20 02:51:01;;;;;;;5.55;2.45;;;;;;;5.26;50.10;101938.53;4945027;28;20027;-80
2023/04/20 02:53:27;;;;;;;4.60;2.20;;;;;;;5.24;50.99;101935.97;4949402;28;20383;-80
2023/04/20 02:55:52;;;;;;;4.35;2.40;;;;;;;5.23;51.26;101939.38;4945109;28;20030;-80
2023/04/20 02:58:17;;;;;;;4.60;2.22;;;;;;;5.26;50.63;101931.69;4947128;28;20138;-81
2023/04/20 03:00:43;;;;;;;3.75;2.33;;;;;;;5.26;51.42;101923.94;4944757;28;20098;-81
2023/04/20 03:03:09;;;;;;;6.88;2.53;;;;;;;5.21;52.21;101925.59;4941810;28;20042;-81
2023/04/20 03:05:34;;;;;;;4.25;2.63;;;;;;;5.24;52.48;101917.91;4941080;28;20044;-80
2023/04/20 03:07:59;;;;;;;3.17;2.10;;;;;;;5.22;52.55;101917.00;4955381;28;20027;-81
2023/04/20 03:10:25;;;;;;;4.10;2.35;;;;;;;5.22;52.77;101922.16;4953906;28;20023;-81
2023/04/20 03:12:50;;;;;;;3.42;2.00;;;;;;;5.25;52.91;101916.16;4951516;28;20399;-80
2023/04/20 03:15:16;;;;;;;4.47;2.25;;;;;;;5.28;53.17;101917.09;4951513;28;20019;-81
2023/04/20 03:17:41;;;;;;;5.30;2.40;;;;;;;5.33;53.09;101909.41;4950885;28;20375;-80
2023/04/20 03:20:07;;;;;;;4.03;2.10;;;;;;;5.37;53.16;101908.63;4951892;28;20063;-80
2023/04/20 03:22:33;;;;;;;4.85;2.20;;;;;;;5.43;53.12;101910.41;4964884;28;20114;-81
2023/04/20 03:24:58;;;;;;;4.68;2.70;;;;;;;5.49;53.56;101915.63;4953891;28;20615;-81
2023/04/20 03:27:24;;;;;;;4.07;2.30;;;;;;;5.53;53.36;101906.22;4950831;28;20031;-80
2023/04/20 03:29:49;;;;;;;4.45;2.20;;;;;;;5.57;53.79;101903.69;4948453;28;20062;-81
2023/04/20 03:32:14;;;;;;;3.97;2.35;;;;;;;5.59;54.25;101902.00;4949236;28;20019;-80
2023/04/20 03:34:40;;;;;;;3.70;2.22;;;;;;;5.66;53.85;101896.91;4955247;28;20171;-81
2023/04/20 03:37:06;;;;;;;3.78;2.13;;;;;;;5.71;53.72;101893.53;4952345;28;20039;-80
2023/04/20 03:39:31;;;;;;;3.55;2.05;;;;;;;5.73;53.60;101881.50;4947999;28;20150;-80
2023/04/20 03:41:56;;;;;;;4.18;2.47;;;;;;;5.78;53.79;101884.16;4950168;28;20043;-80
2023/04/20 03:44:21;;;;;;;4.28;2.40;;;;;;;5.84;54.49;101891.09;4952842;28;20034;-81
2023/04/20 03:46:47;;;;;;;4.32;2.63;;;;;;;5.86;54.67;101894.56;4949794;28;20027;-80
2023/04/20 03:49:12;;;;;;;4.75;2.75;;;;;;;5.89;54.77;101879.94;4953176;28;20027;-80
2023/04/20 03:51:37;;;;;;;4.53;2.83;;;;;;;5.92;54.26;101885.16;4951785;28;20030;-81
2023/04/20 03:54:04;;;;;;;5.93;2.70;;;;;;;5.97;54.64;101880.03;4953139;28;20360;-81
2023/04/20 03:56:30;;;;;;;4.20;2.55;;;;;;;6.00;55.28;101880.09;4948883;28;20023;-81
2023/04/20 03:58:55;;;;;;;6.63;2.80;;;;;;;6.04;54.70;101879.28;4953782;28;20534;-81
2023/04/20 04:01:20;;;;;;;5.60;2.80;;;;;;;6.10;55.32;101872.44;4953175;28;20467;-80
2023/04/20 04:03:45;;;;;;;7.65;3.22;;;;;;;6.15;55.69;101874.19;4953506;28;20035;-81
2023/04/20 04:06:11;;;;;;;4.30;2.70;;;;;;;6.22;55.42;101872.56;4951887;28;20039;-81
2023/04/20 04:08:36;;;;;;;5.07;2.42;;;;;;;6.31;55.08;101866.59;4948725;28;20415;-81
2023/04/20 04:11:01;;;;;;;5.45;2.70;;;;;;;6.35;55.94;101866.66;4954173;28;20031;-80
2023/04/20 04:13:27;;;;;;;3.75;2.50;;;;;;;6.43;55.36;101856.38;4951005;28;20032;-80
2023/04/20 04:15:52;;;;;;;5.28;2.72;;;;;;;6.46;55.70;101861.56;4951409;28;20070;-80
2023/04/20 04:18:17;;;;;;;4.57;2.50;;;;;;;6.53;55.91;101858.16;4950762;28;20034;-81
2023/04/20 04:20:43;;;;;;;7.07;2.78;;;;;;;6.59;55.28;101851.31;4953254;28;20030;-80
2023/04/20 04:23:08;;;;;;;4.53;2.50;;;;;;;6.60;55.49;101842.69;4946030;28;20506;-80
2023/04/20 04:25:36;;;;;;;4.75;2.75;;;;;;;6.64;55.46;101834.13;4950989;28;20267;-80
2023/04/20 04:28:02;;;;;;;4.38;2.72;;;;;;;6.67;55.98;101828.94;4951287;28;20039;-80
2023/04/20 04:30:28;;;;;;;5.43;2.75;;;;;;;6.70;57.13;101818.63;4949293;28;20050;-80
2023/04/20 04:32:54;;;;;;;4.47;2.95;;;;;;;6.71;55.67;101829.84;4948551;28;20089;-80
2023/04/20 04:35:19;;;;;;;4.63;2.85;;;;;;;6.75;56.76;101822.09;4949794;28;20062;-81
2023/04/20 04:37:45;;;;;;;6.68;2.95;;;;;;;6.74;55.84;101820.38;4946193;28;20078;-80
2023/04/20 04:40:10;;;;;;;5.07;3.10;;;;;;;6.76;55.50;101829.00;4948847;28;20051;-81
2023/04/20 04:42:35;;;;;;;5.18;2.83;;;;;;;6.79;55.71;101829.03;4951732;28;20059;-80
2023/04/20 04:45:03;;;;;;;4.75;2.80;;;;;;;6.77;56.12;101825.56;4948906;28;20062;-80
2023/04/20 04:47:32;;;;;;;6.68;2.97;;;;;;;6.77;55.56;101815.22;4939292;28;20035;-80
2023/04/20 04:49:58;;;;;;;6.30;3.03;;;;;;;6.76;56.07;101818.66;4950439;28;20050;-80
2023/04/20 04:52:24;;;;;;;7.05;2.90;;;;;;;6.77;57.66;101815.22;4950252;28;20031;-81
2023/04/20 04:54:49;;;;;;;5.40;3.00;;;;;;;6.78;56.68;101811.78;4950180;28;20023;-80
2023/04/20 04:57:15;;;;;;;4.22;2.47;;;;;;;6.81;55.86;101811.81;4951941;28;20502;-80
2023/04/20 04:59:40;;;;;;;4.65;2.85;;;;;;;6.81;56.84;101819.56;4954705;28;20056;-81
2023/04/20 05:02:05;;;;;;;3.83;2.40;;;;;;;6.83;57.46;101815.25;4954784;28;20034;-81
2023/04/20 05:04:31;;;;;;;4.60;2.70;;;;;;;6.84;56.15;101811.78;4949218;28;20426;-80
2023/04/20 05:06:56;;;;;;;7.55;2.97;;;;;;;6.84;56.63;101808.38;4953327;28;20035;-78
2023/04/20 05:09:21;;;;;;;5.95;2.90;;;;;;;6.86;55.48;101804.06;4953089;28;20042;-81
2023/04/20 05:11:46;;;;;;;5.50;2.70;;;;;;;6.88;56.50;101806.66;4948458;28;20028;-80
2023/04/20 05:14:12;;;;;;;6.15;3.17;;;;;;;6.87;56.31;101805.78;4951021;28;20098;-80
2023/04/20 05:16:37;;;;;;;4.43;2.72;;;;;;;6.87;56.81;101807.50;4952083;28;20211;-81
2023/04/20 05:19:02;;;;;;;6.72;3.25;;;;;;;6.86;57.14;101810.94;4954161;28;20055;-80
2023/04/20 05:21:28;;;;;;;5.50;3.13;;;;;;;6.86;56.72;101813.53;4952415;28;20027;-80
2023/04/20 05:23:53;;;;;;;3.95;2.70;;;;;;;6.88;56.50;101806.66;4953213;28;20383;-80
2023/04/20 05:26:19;;;;;;;4.53;3.13;;;;;;;6.91;56.41;101817.00;4951262;28;20027;-81
2023/04/20 05:28:44;;;;;;;7.45;3.20;;;;;;;6.93;56.98;101812.72;4950783;28;20027;-80
2023/04/20 05:31:09;;;;;;;4.78;3.00;;;;;;;6.93;57.66;101817.91;4947716;28;20062;-80
2023/04/20 05:33:35;;;;;;;4.53;2.70;;;;;;;6.93;57.17;101810.13;4951616;28;20431;-81
2023/04/20 05:36:00;;;;;;;5.32;2.80;;;;;;;6.96;57.64;101812.75;4950307;28;20031;-80
2023/04/20 05:38:25;;;;;;;5.75;2.60;;;;;;;6.98;57.09;101813.63;4952775;28;20309;-80
2023/04/20 05:40:51;;;;;;;4.95;3.00;;;;;;;6.97;58.09;101801.53;4951621;28;20062;-80
2023/04/20 05:43:18;;;;;;;4.85;2.83;;;;;;;7.01;56.58;101792.91;4950242;28;20034;-80
2023/04/20 05:45:47;;;;;;;5.97;2.92;;;;;;;7.05;56.94;101789.47;4950803;28;20031;-81
2023/04/20 05:48:12;;;;;;;5.32;2.75;;;;;;;7.08;58.14;101794.69;4952665;28;20027;-80
2023/04/20 05:50:37;;;;;;;4.55;2.72;;;;;;;7.16;58.11;101791.28;4965114;28;20034;-80
2023/04/20 05:53:03;;;;;;;6.72;3.00;;;;;;;7.21;57.85;101795.59;4952191;28;20203;-81
2023/04/20 05:55:28;;;;;;;6.60;3.28;;;;;;;7.28;58.70;101796.47;4948999;28;20023;-80
2023/04/20 05:57:53;;;;;;;5.95;3.00;;;;;;;7.35;57.76;101787.84;4951928;28;20034;-81
2023/04/20 06:00:19;;;;;;;5.60;2.92;;;;;;;7.41;57.53;101795.66;4950682;28;20019;-80
2023/04/20 06:02:44;;;;;;;8.40;3.00;;;;;;;7.44;59.07;101787.91;4945036;28;20467;-80
2023/04/20 06:05:10;;;;;;;5.90;3.25;;;;;;;7.52;59.30;101787.03;4946770;28;20023;-81
2023/04/20 06:07:36;;;;;;;6.10;3.13;;;;;;;7.55;58.46;101790.53;4949735;28;20406;-81
2023/04/20 06:10:03;;;;;;;5.07;3.35;;;;;;;7.57;58.10;101787.91;4946763;28;20038;-81
2023/04/20 06:12:31;;;;;;;5.57;3.22;;;;;;;7.61;58.04;101794.84;4944318;28;20073;-81
2023/04/20 06:14:57;;;;;;;6.50;3.38;;;;;;;7.62;57.65;101793.97;4945566;28;20127;-81
2023/04/20 06:17:23;;;;;;;7.50;3.15;;;;;;;7.64;57.97;101804.31;4943557;28;20023;-81
2023/04/20 06:19:48;;;;;;;5.50;3.10;;;;;;;7.64;58.95;101788.78;4942667;28;20054;-80
2023/04/20 06:22:15;;;;;;;4.88;3.40;;;;;;;7.64;57.87;101793.97;4947298;28;20085;-81
2023/04/20 06:24:41;;;;;;;5.43;3.42;;;;;;;7.66;57.74;101790.53;4948416;28;20491;-81
2023/04/20 06:27:10;;;;;;;6.55;3.30;;;;;;;7.65;58.53;101795.69;4945978;28;20028;-80
2023/04/20 06:29:35;;;;;;;5.38;3.17;;;;;;;7.72;58.30;101793.13;4945846;28;20031;-81
2023/04/20 06:32:00;;;;;;;8.90;3.50;;;;;;;7.82;57.39;101780.19;4947820;28;20058;-80
2023/04/20 06:34:26;;;;;;;6.30;3.55;;;;;;;7.85;56.58;101780.22;4946921;28;20027;-80
2023/04/20 06:36:51;;;;;;;6.60;3.50;;;;;;;7.87;58.21;101775.88;4949124;28;20039;-82
2023/04/20 06:39:17;;;;;;;6.53;3.42;;;;;;;7.94;56.93;101767.25;4949560;28;20030;-80
2023/04/20 06:41:42;;;;;;;5.07;3.30;;;;;;;8.00;56.62;101776.75;4951249;28;20035;-80
2023/04/20 06:44:08;;;;;;;6.63;3.33;;;;;;;8.04;57.50;101779.31;4952735;28;20371;-81
2023/04/20 06:46:33;;;;;;;4.80;3.00;;;;;;;8.04;56.65;101781.91;4956516;28;20074;-81
2023/04/20 06:48:58;;;;;;;5.30;2.97;;;;;;;8.05;57.19;101778.47;4954735;28;20466;-81
2023/04/20 06:51:25;;;;;;;8.93;3.40;;;;;;;8.02;57.55;101775.91;4954362;28;20035;-81
2023/04/20 06:53:51;;;;;;;8.70;3.25;;;;;;;7.95;57.90;101779.34;4955933;28;20027;-80
2023/04/20 06:56:16;;;;;;;6.25;3.22;;;;;;;7.87;56.94;101763.78;4956197;28;20449;-81
2023/04/20 06:58:41;;;;;;;5.68;3.20;;;;;;;7.89;56.65;101769.84;4955884;28;20063;-81
2023/04/20 07:01:06;;;;;;;7.20;3.42;;;;;;;7.89;58.04;101768.97;4956894;28;20037;-81
2023/04/20 07:03:32;;;;;;;5.15;2.88;;;;;;;7.84;57.03;101774.16;4954246;28;20027;-81
2023/04/20 07:05:57;;;;;;;6.38;2.90;;;;;;;7.81;57.27;101765.50;4948742;28;20414;-77
2023/04/20 07:08:23;;;;;;;5.93;2.75;;;;;;;7.84;58.64;101765.53;4946036;28;20098;-78
2023/04/20 07:10:48;;;;;;;6.78;3.60;;;;;;;7.84;57.65;101770.72;4948445;28;20039;-79
2023/04/20 07:13:13;;;;;;;7.05;2.97;;;;;;;7.82;57.66;101777.59;4950858;28;20485;-80
2023/04/20 07:15:38;;;;;;;5.05;2.80;;;;;;;7.80;58.31;101776.75;4948389;28;20563;-79
2023/04/20 07:18:04;;;;;;;5.93;3.17;;;;;;;7.84;57.59;101783.66;4949266;28;20046;-79
2023/04/20 07:20:30;;;;;;;5.68;2.92;;;;;;;7.82;57.98;101777.59;4951109;28;20031;-79
2023/04/20 07:22:55;;;;;;;5.18;2.80;;;;;;;7.83;57.58;101782.78;4950910;28;20035;-79
2023/04/20 07:25:20;;;;;;;7.80;3.22;;;;;;;7.83;58.14;101776.75;4949548;28;20027;-80
2023/04/20 07:27:46;;;;;;;10.23;7.13;;;;;;;7.85;58.55;101778.47;4937756;28;20031;-81
2023/04/20 07:30:11;;;;;;;58.05;27.77;;;;;;;7.89;58.56;101774.13;4949578;28;20066;-82
2023/04/20 07:32:38;;;;;;;37.00;22.20;;;;;;;7.96;57.85;101769.81;4950743;28;20035;-80
2023/04/20 07:35:04;;;;;;;19.83;12.80;;;;;;;8.07;58.01;101767.22;4948425;28;20039;-79
2023/04/20 07:37:32;;;;;;;16.88;9.07;;;;;;;8.16;57.97;101764.66;4949360;28;20095;-78
2023/04/20 07:39:58;;;;;;;16.73;10.73;;;;;;;8.22;57.39;101775.00;4950144;28;20545;-80
2023/04/20 07:42:23;;;;;;;11.57;6.90;;;;;;;8.28;57.33;101781.94;4949212;28;20063;-80
2023/04/20 07:44:48;;;;;;;10.35;5.80;;;;;;;8.29;57.94;101773.25;4948320;28;20039;-81
2023/04/20 07:47:14;;;;;;;7.32;4.15;;;;;;;8.37;58.02;101773.28;4949268;28;20036;-80
2023/04/20 07:49:40;;;;;;;6.80;4.10;;;;;;;8.44;56.87;101777.56;4947357;28;20410;-80
2023/04/20 07:52:06;;;;;;;7.38;5.13;;;;;;;8.50;58.64;101775.00;4948637;28;20475;-81
2023/04/20 07:54:31;;;;;;;6.40;3.63;;;;;;;8.55;57.13;101770.66;4950346;28;20031;-81
2023/04/20 07:56:58;;;;;;;5.78;3.58;;;;;;;8.60;57.46;101774.09;4948239;28;20034;-82
2023/04/20 07:59:23;;;;;;;5.90;3.80;;;;;;;8.63;57.96;101771.50;4947867;28;20475;-81
2023/04/20 08:01:49;;;;;;;7.55;3.15;;;;;;;8.65;56.81;101774.09;4950011;28;20031;-81
2023/04/20 08:04:15;;;;;;;7.57;3.92;;;;;;;8.63;58.13;101768.91;4948390;28;20039;-81
2023/04/20 08:06:40;;;;;;;5.35;3.15;;;;;;;8.62;56.66;101771.53;4948024;28;20463;-81
2023/04/20 08:09:05;;;;;;;7.47;3.50;;;;;;;8.62;57.43;101777.56;4949212;28;20143;-81
2023/04/20 08:11:31;;;;;;;6.25;3.40;;;;;;;8.58;57.46;101775.84;4947235;28;20090;-81
2023/04/20 08:13:56;;;;;;;4.80;3.10;;;;;;;8.61;57.55;101768.06;4948779;28;20518;-81
2023/04/20 08:16:21;;;;;;;6.25;3.60;;;;;;;8.65;57.04;101756.81;4947897;28;20027;-81
2023/04/20 08:18:46;;;;;;;5.22;3.17;;;;;;;8.68;57.55;101757.69;4948107;28;20043;-81
2023/04/20 08:21:12;;;;;;;3.88;2.78;;;;;;;8.75;57.56;101760.25;4949337;28;20034;-81
2023/04/20 08:23:37;;;;;;;4.38;2.53;;;;;;;8.83;58.04;101755.03;4949495;28;20070;-81
2023/04/20 08:26:03;;;;;;;5.55;2.72;;;;;;;8.93;57.71;101754.09;4949607;28;20141;-81
2023/04/20 08:28:29;;;;;;;6.20;2.90;;;;;;;8.98;57.60;101755.81;4947545;28;20035;-80
2023/04/20 08:30:54;;;;;;;4.68;2.90;;;;;;;9.02;56.80;101745.41;4946132;28;20062;-80
2023/04/20 08:33:19;;;;;;;4.50;2.40;;;;;;;9.06;56.82;101741.06;4948913;28;20426;-80
2023/04/20 08:35:45;;;;;;;4.85;2.50;;;;;;;9.06;56.62;101747.13;4947189;28;20481;-79
2023/04/20 08:38:10;;;;;;;3.85;2.45;;;;;;;9.09;57.24;101746.25;4944280;28;20449;-82
2023/04/20 08:40:36;;;;;;;5.30;2.83;;;;;;;9.16;57.70;101742.75;4942493;28;20023;-81
2023/04/20 08:43:02;;;;;;;6.43;2.80;;;;;;;9.15;57.41;101735.84;4940606;28;20031;-80
2023/04/20 08:45:29;;;;;;;5.07;2.50;;;;;;;9.20;57.34;101739.28;4942128;28;20731;-81
2023/04/20 08:47:56;;;;;;;4.03;2.40;;;;;;;9.26;56.50;101741.81;4939997;28;20043;-81
2023/04/20 08:50:22;;;;;;;3.47;2.30;;;;;;;9.31;56.47;101735.75;4939155;28;20070;-80
2023/04/20 08:52:47;;;;;;;4.68;2.60;;;;;;;9.33;55.53;101744.41;4941943;28;20474;-80
2023/04/20 08:55:17;;;;;;;4.90;2.50;;;;;;;9.31;56.33;101731.41;4939035;28;20039;-79
2023/04/20 08:57:42;;;;;;;4.40;2.50;;;;;;;9.35;57.75;101732.28;4939665;28;20035;-79
2023/04/20 09:00:09;;;;;;;3.72;2.25;;;;;;;9.44;56.50;101732.19;4938781;28;20090;-79
2023/04/20 09:02:35;;;;;;;4.65;2.50;;;;;;;9.49;56.56;101730.44;4940101;28;20046;-79
2023/04/20 09:05:03;;;;;;;3.38;2.40;;;;;;;9.59;56.99;101730.38;4943121;28;20043;-80
2023/04/20 09:07:28;;;;;;;5.55;2.40;;;;;;;9.64;56.42;101726.88;4938777;28;20097;-79
2023/04/20 09:09:55;;;;;;;4.45;2.60;;;;;;;9.62;55.77;101738.13;4938558;28;20043;-80
2023/04/20 09:12:20;;;;;;;5.60;2.67;;;;;;;9.63;56.78;101726.88;4938406;28;20031;-80
2023/04/20 09:14:46;;;;;;;4.13;2.83;;;;;;;9.64;55.50;101734.69;4945911;28;20031;-80
2023/04/20 09:17:13;;;;;;;4.32;2.90;;;;;;;9.67;56.71;101726.00;4942454;28;20042;-81
2023/04/20 09:19:40;;;;;;;5.38;2.70;;;;;;;9.72;56.72;101734.63;4939312;28;20058;-81
2023/04/20 09:22:05;;;;;;;4.28;2.67;;;;;;;9.73;54.88;101723.34;4939784;28;20550;-80
2023/04/20 09:24:33;;;;;;;5.47;2.38;;;;;;;9.68;55.42;101723.38;4943099;28;20034;-80
2023/04/20 09:27:00;;;;;;;4.25;2.45;;;;;;;9.61;55.31;101726.03;4939600;28;20039;-80
2023/04/20 09:29:26;;;;;;;6.25;2.55;;;;;;;9.55;56.69;101721.75;4939954;28;20086;-80
2023/04/20 09:31:52;;;;;;;4.43;2.65;;;;;;;9.54;57.19;101720.88;4940012;28;20028;-81
2023/04/20 09:34:18;;;;;;;5.93;2.70;;;;;;;9.65;55.61;101722.53;4944277;28;20482;-82
2023/04/20 09:36:46;;;;;;;5.22;2.90;;;;;;;9.63;56.25;101721.69;4943325;28;20143;-81
2023/04/20 09:39:17;;;;;;;4.05;2.65;;;;;;;9.63;57.65;101719.09;4937712;28;20045;-81
2023/04/20 09:41:43;;;;;;;4.75;2.65;;;;;;;9.64;57.12;101713.00;4939486;28;20042;-81
2023/04/20 09:44:09;;;;;;;5.10;2.70;;;;;;;9.68;57.04;101714.72;4940132;28;20106;-81
2023/04/20 09:46:36;;;;;;;4.20;2.60;;;;;;;9.66;55.52;101714.72;4938591;28;20392;-81
2023/04/20 09:49:05;;;;;;;5.85;3.17;;;;;;;9.71;55.85;101709.50;4937529;28;20039;-81
2023/04/20 09:51:34;;;;;;;4.22;2.60;;;;;;;9.79;55.75;101704.25;4938458;28;20078;-81
2023/04/20 09:54:01;;;;;;;3.80;2.50;;;;;;;9.86;59.65;101705.91;4939778;28;20036;-81
2023/04/20 09:56:28;;;;;;;4.65;2.65;;;;;;;9.90;59.50;101709.34;4937382;28;20034;-81
2023/04/20 09:58:54;;;;;;;5.75;2.75;;;;;;;9.96;58.55;101706.69;4941122;28;20023;-81
2023/04/20 10:01:23;;;;;;;4.25;2.60;;;;;;;10.00;56.37;101700.59;4937601;28;20119;-81
2023/04/20 10:03:50;;;;;;;4.78;2.45;;;;;;;10.02;57.23;101704.88;4939107;28;20290;-81
2023/04/20 10:06:23;;;;;;;5.13;2.47;;;;;;;10.03;57.37;101700.56;4939471;28;20055;-81
2023/04/20 10:08:50;;;;;;;4.20;2.50;;;;;;;10.00;56.01;101691.03;4937440;28;20525;-81
2023/04/20 10:11:36;;;;;;;3.30;2.20;;;;;;;10.01;56.14;101684.09;4936300;28;20114;-81
2023/04/20 10:14:17;;;;;;;4.47;2.60;;;;;;;9.98;56.66;101689.34;4932932;28;20424;-81
2023/04/20 10:16:44;;;;;;;5.65;2.72;;;;;;;9.98;56.59;101694.53;4936034;28;20038;-81
2023/04/20 10:19:09;;;;;;;4.85;2.63;;;;;;;10.02;56.89;101698.84;4934288;28;20039;-81
2023/04/20 10:21:49;;;;;;;4.03;2.90;;;;;;;10.11;55.95;101688.31;4937928;28;20039;-81
2023/04/20 10:24:27;;;;;;;4.00;2.85;;;;;;;10.18;55.69;101691.72;4937438;28;20486;-81
2023/04/20 10:26:52;;;;;;;5.18;3.20;;;;;;;10.27;55.66;101688.16;4936898;28;20118;-81
2023/04/20 10:29:27;;;;;;;5.60;2.90;;;;;;;10.32;55.54;101687.25;4936814;28;20110;-81
2023/04/20 10:31:54;;;;;;;5.22;3.05;;;;;;;10.35;55.62;101675.94;4938972;28;20044;-81
2023/04/20 10:34:33;;;;;;;5.13;2.78;;;;;;;10.33;55.04;101682.91;4938886;28;20452;-81
2023/04/20 10:37:08;;;;;;;4.40;2.80;;;;;;;10.29;55.10;101670.81;4935997;28;20031;-81
2023/04/20 10:39:36;;;;;;;7.03;3.13;;;;;;;10.26;57.43;101668.22;4936808;28;20059;-81
2023/04/20 10:42:01;;;;;;;4.53;2.80;;;;;;;10.12;55.75;101669.25;4935559;28;20070;-81
2023/04/20 10:44:27;;;;;;;4.40;2.90;;;;;;;10.08;56.11;101667.56;4938260;28;20035;-81
2023/04/20 10:46:53;;;;;;;4.75;3.13;;;;;;;10.11;56.99;101661.47;4936442;28;21485;-81
2023/04/20 10:49:24;;;;;;;4.55;2.75;;;;;;;10.17;57.57;101664.88;4935741;28;20350;-81
2023/04/20 10:51:51;;;;;;;5.20;3.07;;;;;;;10.30;59.42;101663.00;4937745;28;20050;-81
2023/04/20 10:54:17;;;;;;;6.28;3.40;;;;;;;10.38;55.26;101652.53;4935680;28;20865;-80
2023/04/20 10:56:43;;;;;;;5.93;3.20;;;;;;;10.33;55.98;101652.53;4936549;28;20059;-81
2023/04/20 10:59:11;;;;;;;4.70;3.05;;;;;;;10.31;57.25;101664.72;4937508;28;20038;-81
2023/04/20 11:01:37;;;;;;;4.50;3.10;;;;;;;10.29;54.85;101657.81;4941656;28;20447;-81
2023/04/20 11:04:03;;;;;;;5.18;3.13;;;;;;;10.28;55.30;101650.88;4937297;28;20368;-81
2023/04/20 11:06:30;;;;;;;4.78;3.13;;;;;;;10.32;54.38;101649.97;4936819;28;20042;-81
2023/04/20 11:08:55;;;;;;;5.10;3.38;;;;;;;10.29;55.12;101650.00;4944404;28;20478;-81
2023/04/20 11:11:28;;;;;;;5.05;3.08;;;;;;;10.27;54.41;101637.03;4935929;28;20041;-80
2023/04/20 11:14:07;;;;;;;6.38;3.15;;;;;;;10.17;54.51;101641.47;4935883;28;20547;-81
2023/04/20 11:16:33;;;;;;;8.48;3.25;;;;;;;10.09;55.21;101647.63;4939721;28;20027;-80
2023/04/20 11:18:58;;;;;;;4.40;2.90;;;;;;;9.97;55.75;101651.22;4934594;28;20163;-81
2023/04/20 11:21:36;;;;;;;5.43;3.00;;;;;;;9.92;55.72;101643.47;4940996;28;20109;-81
2023/04/20 11:24:01;;;;;;;6.63;3.38;;;;;;;9.82;53.99;101640.09;4936381;28;20035;-81
2023/04/20 11:26:35;;;;;;;6.28;3.40;;;;;;;9.76;55.17;101624.56;4937119;28;20054;-81